Time;durP1;ratioP1;P1;durP2;ratioP2;P2;SDS_P1;SDS_P2;PMS_P1;PMS_P2;Temp;Humidity;BMP_temperature;BMP_pressure;BME280_temperature;BME280_humidity;BME280_pressure;Samples;Min_cycle;Max_cycle;Signal;HPM_P1;HPM_P2
2021/08/10 00:01:37;;;;;;;43.17;31.67;;;;;;;;;;4993933;28;20027;-53
2021/08/10 00:04:03;;;;;;;38.13;28.88;;;;;;;;;;4993741;28;20203;-54
2021/08/10 00:06:29;;;;;;;37.55;24.10;;;;;;;;;;4993562;28;20034;-54
2021/08/10 00:08:56;;;;;;;10.40;7.25;;;;;;;;;;4993379;28;20038;-53
2021/08/10 00:11:22;;;;;;;13.70;4.47;;;;;;;;;;4992313;28;20509;-53
2021/08/10 00:13:50;;;;;;;41.70;31.08;;;;;;;;;;4992285;28;20069;-53
2021/08/10 00:16:16;;;;;;;12.18;7.07;;;;;;;;;;4992411;28;20058;-52
2021/08/10 00:18:42;;;;;;;24.15;15.05;;;;;;;;;;4993622;28;20022;-52
2021/08/10 00:21:08;;;;;;;27.02;20.33;;;;;;;;;;4993453;28;20027;-54
2021/08/10 00:23:34;;;;;;;10.40;5.80;;;;;;;;;;4993645;28;20438;-53
2021/08/10 00:26:01;;;;;;;8.25;3.53;;;;;;;;;;4996753;28;20030;-52
2021/08/10 00:28:27;;;;;;;4.78;3.45;;;;;;;;;;4997161;28;20064;-52
2021/08/10 00:30:53;;;;;;;7.50;3.35;;;;;;;;;;4997292;28;20100;-52
2021/08/10 00:33:19;;;;;;;8.25;3.45;;;;;;;;;;4997278;28;20037;-51
2021/08/10 00:35:45;;;;;;;4.78;3.15;;;;;;;;;;4997121;28;20033;-53
2021/08/10 00:38:11;;;;;;;7.80;3.38;;;;;;;;;;4996873;28;20490;-52
2021/08/10 00:40:38;;;;;;;9.50;3.45;;;;;;;;;;4997102;28;20161;-53
2021/08/10 00:43:04;;;;;;;5.75;3.70;;;;;;;;;;4996896;28;20026;-52
2021/08/10 00:45:30;;;;;;;6.55;3.42;;;;;;;;;;4996993;28;20027;-53
2021/08/10 00:47:56;;;;;;;7.38;3.10;;;;;;;;;;4997117;28;20025;-51
2021/08/10 00:50:22;;;;;;;8.05;3.40;;;;;;;;;;4997159;28;20081;-52
2021/08/10 00:52:48;;;;;;;7.13;3.85;;;;;;;;;;4996757;28;20077;-52
2021/08/10 00:55:14;;;;;;;6.53;3.28;;;;;;;;;;4997095;28;20018;-52
2021/08/10 00:57:41;;;;;;;7.07;3.60;;;;;;;;;;4996936;28;20085;-52
2021/08/10 01:00:09;;;;;;;6.25;3.25;;;;;;;;;;4996887;28;20018;-53
2021/08/10 01:02:35;;;;;;;7.15;3.42;;;;;;;;;;4996769;28;20022;-54
2021/08/10 01:05:02;;;;;;;6.50;3.47;;;;;;;;;;4996811;28;20030;-54
2021/08/10 01:07:47;;;;;;;5.70;3.33;;;;;;;;;;4996763;28;20463;-53
2021/08/10 01:10:29;;;;;;;5.65;3.15;;;;;;;;;;4996449;28;20088;-53
2021/08/10 01:12:59;;;;;;;8.38;3.45;;;;;;;;;;4996689;28;20040;-52
2021/08/10 01:15:33;;;;;;;6.03;3.30;;;;;;;;;;4996418;28;20061;-53
2021/08/10 01:18:02;;;;;;;6.85;3.83;;;;;;;;;;4996539;28;20068;-53
2021/08/10 01:20:28;;;;;;;6.30;3.17;;;;;;;;;;4996350;28;20113;-50
2021/08/10 01:22:55;;;;;;;7.22;3.38;;;;;;;;;;4996289;28;20023;-52
2021/08/10 01:25:39;;;;;;;7.25;3.28;;;;;;;;;;4996282;28;20036;-51
2021/08/10 01:28:20;;;;;;;6.50;3.30;;;;;;;;;;4996285;28;20022;-53
2021/08/10 01:30:53;;;;;;;6.57;4.20;;;;;;;;;;4996103;28;20030;-52
2021/08/10 01:33:19;;;;;;;5.88;3.33;;;;;;;;;;4996230;28;20109;-52
2021/08/10 01:35:46;;;;;;;6.25;3.60;;;;;;;;;;4995171;28;20073;-52
2021/08/10 01:38:12;;;;;;;7.35;3.25;;;;;;;;;;4995910;28;20105;-52
2021/08/10 01:40:39;;;;;;;7.35;3.30;;;;;;;;;;4996154;28;20023;-52
2021/08/10 01:43:07;;;;;;;9.85;4.05;;;;;;;;;;4995969;28;20082;-53
2021/08/10 01:45:37;;;;;;;7.07;3.55;;;;;;;;;;4995953;28;20033;-50
2021/08/10 01:48:05;;;;;;;6.57;3.20;;;;;;;;;;4995937;28;20030;-50
2021/08/10 01:50:33;;;;;;;4.60;3.00;;;;;;;;;;4995803;28;20089;-52
2021/08/10 01:53:00;;;;;;;4.15;3.35;;;;;;;;;;4995571;28;20050;-52
2021/08/10 01:55:26;;;;;;;6.90;3.35;;;;;;;;;;4995832;28;20069;-51
2021/08/10 01:57:55;;;;;;;4.97;3.15;;;;;;;;;;4995747;28;20061;-51
2021/08/10 02:00:21;;;;;;;5.65;3.55;;;;;;;;;;4995650;28;20062;-53
2021/08/10 02:02:48;;;;;;;6.93;3.47;;;;;;;;;;4995671;28;20027;-50
2021/08/10 02:05:14;;;;;;;5.25;3.65;;;;;;;;;;4995599;28;20106;-52
2021/08/10 02:07:40;;;;;;;4.55;3.22;;;;;;;;;;4995464;28;20146;-50
2021/08/10 02:10:07;;;;;;;3.72;3.17;;;;;;;;;;4995102;28;20462;-52
2021/08/10 02:12:35;;;;;;;5.78;3.55;;;;;;;;;;4995410;28;20042;-52
2021/08/10 02:15:04;;;;;;;4.55;3.15;;;;;;;;;;4995390;28;20027;-52
2021/08/10 02:17:30;;;;;;;7.40;3.20;;;;;;;;;;4995423;28;20380;-52
2021/08/10 02:19:56;;;;;;;6.70;3.38;;;;;;;;;;4995218;28;20029;-52
2021/08/10 02:22:22;;;;;;;8.60;3.63;;;;;;;;;;4995078;28;20030;-52
2021/08/10 02:24:52;;;;;;;7.72;3.33;;;;;;;;;;4995379;28;20026;-52
2021/08/10 02:27:47;;;;;;;6.03;3.72;;;;;;;;;;4995184;28;20034;-53
2021/08/10 02:30:16;;;;;;;6.80;3.55;;;;;;;;;;4938137;29;20035;-52
2021/08/10 02:32:43;;;;;;;6.47;3.50;;;;;;;;;;4954392;29;20035;-50
2021/08/10 02:35:12;;;;;;;4.32;3.30;;;;;;;;;;4954318;29;20042;-52
2021/08/10 02:37:39;;;;;;;7.78;4.13;;;;;;;;;;4954236;29;20027;-51
2021/08/10 02:40:07;;;;;;;9.00;3.92;;;;;;;;;;4953945;29;20045;-53
2021/08/10 02:42:35;;;;;;;8.35;3.47;;;;;;;;;;4954142;29;20031;-52
2021/08/10 02:45:03;;;;;;;26.92;20.27;;;;;;;;;;4953990;29;20388;-52
2021/08/10 02:47:29;;;;;;;13.43;7.97;;;;;;;;;;4953776;28;20130;-50
2021/08/10 02:49:55;;;;;;;22.58;16.83;;;;;;;;;;4953989;29;20034;-54
2021/08/10 02:52:22;;;;;;;12.27;7.13;;;;;;;;;;4953884;29;20099;-52
2021/08/10 02:54:48;;;;;;;9.95;5.53;;;;;;;;;;4954040;29;20031;-51
2021/08/10 02:57:14;;;;;;;11.68;4.88;;;;;;;;;;4953814;29;20090;-53
2021/08/10 02:59:47;;;;;;;4.88;3.90;;;;;;;;;;4953836;29;20094;-51
2021/08/10 03:02:16;;;;;;;5.07;3.90;;;;;;;;;;4953860;29;20158;-49
2021/08/10 03:04:47;;;;;;;6.15;3.50;;;;;;;;;;4953721;29;20058;-51
2021/08/10 03:07:14;;;;;;;7.07;3.42;;;;;;;;;;4983712;28;20038;-50
2021/08/10 03:09:40;;;;;;;5.68;3.55;;;;;;;;;;4994127;28;20042;-50
2021/08/10 03:12:06;;;;;;;6.65;3.50;;;;;;;;;;4994222;28;20034;-51
2021/08/10 03:14:34;;;;;;;7.43;3.45;;;;;;;;;;4994398;28;20485;-50
2021/08/10 03:17:05;;;;;;;8.25;4.03;;;;;;;;;;4994366;28;20436;-51
2021/08/10 03:19:35;;;;;;;5.32;3.28;;;;;;;;;;4994325;28;20490;-50
2021/08/10 03:22:01;;;;;;;5.88;3.20;;;;;;;;;;4994141;28;20027;-49
2021/08/10 03:24:29;;;;;;;4.85;3.00;;;;;;;;;;4994148;28;20023;-51
2021/08/10 03:26:58;;;;;;;3.65;3.13;;;;;;;;;;4994036;28;20030;-50
2021/08/10 03:29:24;;;;;;;6.80;3.67;;;;;;;;;;4994205;28;20014;-50
2021/08/10 03:31:50;;;;;;;15.48;4.25;;;;;;;;;;4993943;28;20036;-50
2021/08/10 03:34:19;;;;;;;6.85;3.40;;;;;;;;;;4994108;28;20545;-50
2021/08/10 03:36:48;;;;;;;6.07;3.47;;;;;;;;;;4994152;28;20022;-51
2021/08/10 03:39:14;;;;;;;8.10;3.83;;;;;;;;;;4993872;28;20077;-52
2021/08/10 03:41:40;;;;;;;5.95;3.60;;;;;;;;;;4993847;28;20026;-52
2021/08/10 03:44:06;;;;;;;7.85;3.92;;;;;;;;;;4993856;28;20026;-52
2021/08/10 03:46:33;;;;;;;6.57;3.90;;;;;;;;;;4993848;28;20037;-52
2021/08/10 03:48:59;;;;;;;6.68;4.05;;;;;;;;;;4993911;28;20038;-52
2021/08/10 03:51:26;;;;;;;7.05;3.75;;;;;;;;;;4993827;28;20038;-52
2021/08/10 03:53:52;;;;;;;8.88;3.83;;;;;;;;;;4993811;28;20471;-52
2021/08/10 03:56:22;;;;;;;8.40;3.95;;;;;;;;;;4993899;28;20027;-51
2021/08/10 03:58:49;;;;;;;5.63;3.72;;;;;;;;;;4994045;28;20470;-52
2021/08/10 04:01:19;;;;;;;6.28;3.78;;;;;;;;;;4997847;28;20387;-52
2021/08/10 04:03:45;;;;;;;4.10;3.50;;;;;;;;;;4998004;28;20027;-53
2021/08/10 04:06:12;;;;;;;5.90;3.90;;;;;;;;;;4997712;28;20081;-52
2021/08/10 04:08:41;;;;;;;18.67;11.23;;;;;;;;;;4997502;28;20057;-52
2021/08/10 04:11:09;;;;;;;20.65;10.82;;;;;;;;;;4997483;28;20078;-53
2021/08/10 04:13:35;;;;;;;13.35;9.38;;;;;;;;;;4997589;28;20113;-52
2021/08/10 04:16:03;;;;;;;11.05;5.53;;;;;;;;;;4997475;28;20545;-52
2021/08/10 04:18:30;;;;;;;8.27;4.43;;;;;;;;;;4997629;28;20026;-52
2021/08/10 04:20:56;;;;;;;5.80;3.97;;;;;;;;;;4997498;28;20034;-52
2021/08/10 04:23:22;;;;;;;7.35;3.60;;;;;;;;;;4997250;28;20486;-52
2021/08/10 04:25:48;;;;;;;6.93;4.53;;;;;;;;;;4997382;28;20037;-51
2021/08/10 04:28:17;;;;;;;8.40;4.50;;;;;;;;;;4997244;28;20061;-51
2021/08/10 04:30:45;;;;;;;7.65;5.28;;;;;;;;;;4997379;28;20058;-52
2021/08/10 04:33:14;;;;;;;9.23;5.53;;;;;;;;;;4997189;28;20117;-53
2021/08/10 04:35:40;;;;;;;6.40;4.50;;;;;;;;;;4997192;28;20027;-52
2021/08/10 04:38:06;;;;;;;8.50;4.90;;;;;;;;;;4996912;28;20483;-52
2021/08/10 04:40:32;;;;;;;5.57;3.83;;;;;;;;;;4997092;28;20041;-52
2021/08/10 04:42:59;;;;;;;4.93;4.07;;;;;;;;;;4997293;28;20026;-52
2021/08/10 04:45:25;;;;;;;9.45;3.60;;;;;;;;;;4997230;28;20022;-51
2021/08/10 04:47:54;;;;;;;7.47;3.40;;;;;;;;;;4996914;28;20467;-51
2021/08/10 04:50:21;;;;;;;7.28;3.13;;;;;;;;;;4996853;28;20030;-51
2021/08/10 04:52:47;;;;;;;6.40;3.45;;;;;;;;;;4996855;28;20066;-50
2021/08/10 04:55:16;;;;;;;6.28;3.10;;;;;;;;;;4996747;28;20174;-50
2021/08/10 04:57:42;;;;;;;8.70;3.58;;;;;;;;;;4996759;28;20379;-50
2021/08/10 05:00:09;;;;;;;5.88;3.60;;;;;;;;;;4996812;28;20023;-47
2021/08/10 05:02:38;;;;;;;11.20;2.95;;;;;;;;;;4997144;28;20036;-47
2021/08/10 05:05:05;;;;;;;6.05;2.85;;;;;;;;;;4996747;28;20018;-48
2021/08/10 05:07:31;;;;;;;5.78;3.63;;;;;;;;;;4996667;28;20050;-49
2021/08/10 05:09:57;;;;;;;7.13;3.22;;;;;;;;;;4996124;28;20137;-51
2021/08/10 05:12:23;;;;;;;15.73;12.20;;;;;;;;;;4996312;28;20038;-50
2021/08/10 05:14:49;;;;;;;17.20;14.55;;;;;;;;;;4996430;28;20417;-51
2021/08/10 05:17:16;;;;;;;20.15;15.60;;;;;;;;;;4996659;28;20387;-51
2021/08/10 05:19:42;;;;;;;99.78;86.18;;;;;;;;;;4996331;28;20416;-51
2021/08/10 05:22:08;;;;;;;15.73;12.63;;;;;;;;;;4996118;28;20022;-50
2021/08/10 05:24:34;;;;;;;7.40;4.55;;;;;;;;;;4996170;28;20072;-49
2021/08/10 05:27:01;;;;;;;12.98;8.57;;;;;;;;;;4996389;28;20022;-50
2021/08/10 05:29:27;;;;;;;25.42;12.00;;;;;;;;;;4996116;28;20534;-50
2021/08/10 05:31:53;;;;;;;46.33;30.50;;;;;;;;;;4996222;28;20506;-51
2021/08/10 05:34:19;;;;;;;39.50;25.60;;;;;;;;;;4996003;28;20038;-51
2021/08/10 05:36:45;;;;;;;22.30;13.88;;;;;;;;;;4996034;28;20015;-52
2021/08/10 05:39:11;;;;;;;14.73;8.43;;;;;;;;;;4995763;28;20038;-53
2021/08/10 05:41:37;;;;;;;23.48;14.40;;;;;;;;;;4994662;28;20050;-52
2021/08/10 05:44:03;;;;;;;58.40;42.70;;;;;;;;;;4996148;28;20454;-52
2021/08/10 05:46:29;;;;;;;20.52;14.82;;;;;;;;;;4995845;28;20523;-51
2021/08/10 05:48:57;;;;;;;41.08;27.05;;;;;;;;;;4995810;28;20102;-52
2021/08/10 05:51:23;;;;;;;53.25;34.85;;;;;;;;;;4995767;28;20022;-53
2021/08/10 05:53:49;;;;;;;68.10;51.05;;;;;;;;;;4995745;28;20034;-51
2021/08/10 05:56:16;;;;;;;23.15;12.55;;;;;;;;;;4995565;28;20027;-53
2021/08/10 05:58:44;;;;;;;19.23;11.45;;;;;;;;;;4995635;28;20027;-53
2021/08/10 06:01:10;;;;;;;24.38;16.42;;;;;;;;;;4995717;28;20098;-52
2021/08/10 06:03:36;;;;;;;46.90;34.95;;;;;;;;;;4995476;28;20022;-53
2021/08/10 06:06:02;;;;;;;30.63;19.67;;;;;;;;;;4994288;28;20030;-52
2021/08/10 06:08:28;;;;;;;20.65;12.93;;;;;;;;;;4995211;28;20038;-52
2021/08/10 06:10:55;;;;;;;42.72;30.27;;;;;;;;;;4995337;28;20053;-51
2021/08/10 06:13:21;;;;;;;25.08;16.77;;;;;;;;;;4995253;28;20092;-52
2021/08/10 06:15:47;;;;;;;42.95;27.95;;;;;;;;;;4995520;28;20142;-50
2021/08/10 06:18:13;;;;;;;21.20;13.38;;;;;;;;;;4995254;28;20026;-52
2021/08/10 06:20:39;;;;;;;15.25;9.55;;;;;;;;;;4995367;28;20026;-52
2021/08/10 06:23:07;;;;;;;14.82;9.98;;;;;;;;;;4994675;28;20031;-53
2021/08/10 06:25:36;;;;;;;43.97;28.35;;;;;;;;;;4995075;28;20036;-53
2021/08/10 06:28:02;;;;;;;41.72;23.48;;;;;;;;;;4995178;28;20026;-52
2021/08/10 06:30:28;;;;;;;31.10;18.80;;;;;;;;;;4994981;28;20023;-53
2021/08/10 06:32:54;;;;;;;27.85;18.92;;;;;;;;;;4995078;28;20041;-53
2021/08/10 06:35:20;;;;;;;20.45;13.75;;;;;;;;;;4994875;28;20375;-53
2021/08/10 06:37:46;;;;;;;7.82;4.50;;;;;;;;;;4994779;28;20033;-52
2021/08/10 06:40:12;;;;;;;7.78;5.40;;;;;;;;;;4994702;28;20030;-52
2021/08/10 06:42:38;;;;;;;3.42;2.70;;;;;;;;;;4994739;28;20040;-50
2021/08/10 06:45:05;;;;;;;5.32;3.70;;;;;;;;;;4994891;28;20057;-52
2021/08/10 06:47:33;;;;;;;14.05;7.85;;;;;;;;;;4994788;28;20757;-52
2021/08/10 06:49:59;;;;;;;8.80;4.30;;;;;;;;;;4993675;28;20081;-52
2021/08/10 06:52:25;;;;;;;11.10;5.35;;;;;;;;;;4994601;28;20042;-52
2021/08/10 06:54:51;;;;;;;10.25;3.97;;;;;;;;;;4994459;28;20020;-52
2021/08/10 06:57:17;;;;;;;6.55;3.08;;;;;;;;;;4994476;28;20038;-53
2021/08/10 06:59:43;;;;;;;3.95;2.45;;;;;;;;;;4994556;28;20479;-52
2021/08/10 07:02:09;;;;;;;5.75;2.88;;;;;;;;;;4994494;28;20052;-53
2021/08/10 07:04:38;;;;;;;2.47;2.20;;;;;;;;;;4994400;28;20022;-53
2021/08/10 07:07:04;;;;;;;26.05;19.45;;;;;;;;;;4994421;28;20109;-52
2021/08/10 07:09:31;;;;;;;16.48;8.73;;;;;;;;;;4993947;28;20397;-52
2021/08/10 07:11:57;;;;;;;3.97;3.50;;;;;;;;;;4994192;28;20447;-51
2021/08/10 07:14:23;;;;;;;4.90;2.85;;;;;;;;;;4994341;28;20069;-55
2021/08/10 07:16:49;;;;;;;26.23;19.63;;;;;;;;;;4994369;28;20053;-54
2021/08/10 07:19:15;;;;;;;28.45;20.50;;;;;;;;;;4994172;28;20534;-56
2021/08/10 07:21:44;;;;;;;66.85;46.92;;;;;;;;;;4994258;28;20507;-55
2021/08/10 07:24:10;;;;;;;65.10;46.33;;;;;;;;;;4992748;28;20037;-55
2021/08/10 07:26:36;;;;;;;31.58;18.77;;;;;;;;;;4994293;28;20056;-55
2021/08/10 07:29:03;;;;;;;5.00;3.63;;;;;;;;;;4994030;28;20036;-54
2021/08/10 07:31:29;;;;;;;9.15;5.35;;;;;;;;;;4993901;28;20018;-56
2021/08/10 07:33:55;;;;;;;6.40;4.60;;;;;;;;;;4993202;28;20109;-56
2021/08/10 07:36:21;;;;;;;10.20;3.97;;;;;;;;;;4994112;28;20467;-56
2021/08/10 07:38:47;;;;;;;5.97;3.38;;;;;;;;;;4993771;28;20117;-55
2021/08/10 07:41:13;;;;;;;3.35;2.15;;;;;;;;;;4993857;28;20076;-56
2021/08/10 07:43:39;;;;;;;4.18;2.20;;;;;;;;;;4993922;28;20076;-54
2021/08/10 07:46:06;;;;;;;5.68;2.20;;;;;;;;;;4993487;28;20023;-55
2021/08/10 07:48:34;;;;;;;2.30;1.90;;;;;;;;;;4993352;28;20475;-55
2021/08/10 07:51:00;;;;;;;8.30;3.85;;;;;;;;;;4993436;28;20105;-56
2021/08/10 07:53:26;;;;;;;12.60;2.67;;;;;;;;;;4993303;28;20101;-54
2021/08/10 07:55:53;;;;;;;5.85;1.60;;;;;;;;;;4993269;28;20049;-56
2021/08/10 07:58:19;;;;;;;3.05;2.17;;;;;;;;;;4993588;28;20034;-54
2021/08/10 08:00:45;;;;;;;4.63;2.13;;;;;;;;;;4993469;28;20065;-55
2021/08/10 08:03:11;;;;;;;17.55;12.18;;;;;;;;;;4993581;28;20026;-54
2021/08/10 08:05:37;;;;;;;5.63;2.13;;;;;;;;;;4993440;28;20027;-56
2021/08/10 08:08:03;;;;;;;3.08;1.85;;;;;;;;;;4992821;28;20054;-53
2021/08/10 08:10:30;;;;;;;7.03;2.30;;;;;;;;;;4993049;28;20386;-55
2021/08/10 08:12:56;;;;;;;4.00;2.20;;;;;;;;;;4993238;28;20041;-55
2021/08/10 08:15:22;;;;;;;4.20;1.77;;;;;;;;;;4993725;28;20038;-55
2021/08/10 08:17:48;;;;;;;9.52;5.80;;;;;;;;;;4993337;28;20030;-56
2021/08/10 08:20:15;;;;;;;4.20;2.85;;;;;;;;;;4993165;28;20029;-54
2021/08/10 08:22:41;;;;;;;44.33;27.70;;;;;;;;;;4993115;28;20022;-54
2021/08/10 08:25:07;;;;;;;27.67;21.20;;;;;;;;;;4992859;28;20085;-55
2021/08/10 08:27:38;;;;;;;7.47;4.05;;;;;;;;;;4993372;28;20030;-55
2021/08/10 08:30:04;;;;;;;;;;;;;;;;;;4993988;28;20022;-55
2021/08/10 08:32:30;;;;;;;7.63;2.90;;;;;;;;;;4993622;28;19910;-54
2021/08/10 08:34:56;;;;;;;16.10;8.57;;;;;;;;;;4993682;28;20027;-54
2021/08/10 08:37:22;;;;;;;38.97;26.10;;;;;;;;;;4992722;28;20073;-55
2021/08/10 08:39:50;;;;;;;12.68;5.85;;;;;;;;;;4992764;28;20110;-54
2021/08/10 08:42:16;;;;;;;7.80;4.75;;;;;;;;;;4993017;28;20039;-55
2021/08/10 08:44:42;;;;;;;18.83;12.57;;;;;;;;;;4992973;28;20475;-54
2021/08/10 08:47:09;;;;;;;36.35;26.77;;;;;;;;;;4996190;28;20092;-53
2021/08/10 08:49:36;;;;;;;12.20;6.30;;;;;;;;;;4996633;28;20044;-53
2021/08/10 08:52:04;;;;;;;11.73;7.15;;;;;;;;;;4996455;28;20375;-53
2021/08/10 08:54:32;;;;;;;14.18;7.32;;;;;;;;;;4996299;28;20034;-53
2021/08/10 08:56:59;;;;;;;27.38;18.80;;;;;;;;;;4996282;28;20418;-52
2021/08/10 08:59:25;;;;;;;3.83;3.33;;;;;;;;;;4996280;28;20022;-54
2021/08/10 09:01:52;;;;;;;8.35;5.57;;;;;;;;;;4996288;28;20025;-52
2021/08/10 09:04:22;;;;;;;4.43;3.00;;;;;;;;;;4996133;28;20432;-53
2021/08/10 09:06:49;;;;;;;17.75;11.30;;;;;;;;;;4996343;28;20522;-53
2021/08/10 09:09:25;;;;;;;3.03;1.88;;;;;;;;;;4995773;28;20053;-53
2021/08/10 09:11:56;;;;;;;11.07;6.70;;;;;;;;;;4994903;28;20014;-49
2021/08/10 09:14:24;;;;;;;24.73;17.02;;;;;;;;;;4993465;28;20490;-53
2021/08/10 09:17:02;;;;;;;14.55;9.43;;;;;;;;;;4996143;28;20390;-53
2021/08/10 09:19:41;;;;;;;6.85;5.40;;;;;;;;;;4994198;28;20205;-50
2021/08/10 09:22:13;;;;;;;9.63;6.60;;;;;;;;;;4993437;28;20037;-54
2021/08/10 09:24:43;;;;;;;6.57;3.58;;;;;;;;;;4995436;28;20038;-50
2021/08/10 09:27:26;;;;;;;10.50;6.32;;;;;;;;;;4996077;28;20077;-52
2021/08/10 09:29:52;;;;;;;6.32;4.47;;;;;;;;;;4996251;28;20026;-51
2021/08/10 09:32:19;;;;;;;3.28;2.88;;;;;;;;;;4995807;28;20446;-51
2021/08/10 09:34:45;;;;;;;5.43;1.90;;;;;;;;;;4995988;28;20113;-51
2021/08/10 09:37:17;;;;;;;2.92;2.05;;;;;;;;;;4995979;28;20026;-52
2021/08/10 09:39:44;;;;;;;6.70;2.42;;;;;;;;;;4995999;28;20041;-50
2021/08/10 09:42:12;;;;;;;17.42;11.75;;;;;;;;;;4995994;28;20073;-51
2021/08/10 09:44:59;;;;;;;29.23;22.52;;;;;;;;;;4995526;28;20039;-51
2021/08/10 09:47:40;;;;;;;14.20;11.73;;;;;;;;;;4993386;28;20022;-51
2021/08/10 09:50:23;;;;;;;5.40;3.13;;;;;;;;;;4993785;28;20057;-54
2021/08/10 09:52:49;;;;;;;11.55;7.18;;;;;;;;;;4993713;28;20026;-52
2021/08/10 09:55:16;;;;;;;5.40;2.38;;;;;;;;;;4995577;28;20104;-54
2021/08/10 09:57:44;;;;;;;2.88;2.63;;;;;;;;;;4994182;28;20037;-54
2021/08/10 10:00:11;;;;;;;3.33;1.77;;;;;;;;;;4995602;28;20022;-53
2021/08/10 10:02:37;;;;;;;2.13;1.50;;;;;;;;;;4995740;28;20066;-58
2021/08/10 10:05:06;;;;;;;3.17;1.60;;;;;;;;;;4995192;28;20117;-53
2021/08/10 10:07:32;;;;;;;2.35;1.85;;;;;;;;;;4994785;28;20050;-53
2021/08/10 10:09:58;;;;;;;3.75;1.65;;;;;;;;;;4994747;28;20062;-51
2021/08/10 10:12:25;;;;;;;21.40;15.60;;;;;;;;;;4994840;28;20038;-51
2021/08/10 10:14:55;;;;;;;27.35;20.17;;;;;;;;;;4995444;28;20054;-50
2021/08/10 10:17:21;;;;;;;12.10;5.38;;;;;;;;;;4995389;28;20022;-52
2021/08/10 10:19:48;;;;;;;4.90;4.22;;;;;;;;;;4995074;28;20030;-54
2021/08/10 10:22:21;;;;;;;7.00;4.07;;;;;;;;;;4993901;28;20022;-58
2021/08/10 10:24:48;;;;;;;6.07;3.63;;;;;;;;;;4994577;28;20494;-57
2021/08/10 10:27:18;;;;;;;1.52;1.42;;;;;;;;;;4994001;28;20391;-56
2021/08/10 10:29:47;;;;;;;3.63;2.73;;;;;;;;;;4993752;28;20038;-58
2021/08/10 10:32:15;;;;;;;3.75;2.00;;;;;;;;;;4994231;28;20060;-55
2021/08/10 10:34:42;;;;;;;4.40;3.20;;;;;;;;;;4994178;28;20038;-52
2021/08/10 10:37:09;;;;;;;13.70;6.43;;;;;;;;;;4994678;28;20077;-49
2021/08/10 10:39:37;;;;;;;9.65;6.75;;;;;;;;;;4994290;28;20033;-50
2021/08/10 10:42:09;;;;;;;3.85;1.95;;;;;;;;;;4994700;28;20037;-52
2021/08/10 10:44:51;;;;;;;4.10;2.92;;;;;;;;;;4991607;28;20084;-52
2021/08/10 10:47:24;;;;;;;9.00;6.30;;;;;;;;;;4994821;28;20028;-51
2021/08/10 10:49:53;;;;;;;5.65;2.22;;;;;;;;;;4994475;28;20593;-51
2021/08/10 10:52:19;;;;;;;3.25;1.88;;;;;;;;;;4994969;28;20121;-51
2021/08/10 10:54:46;;;;;;;4.00;2.55;;;;;;;;;;4994427;28;20057;-49
2021/08/10 10:57:33;;;;;;;2.95;1.75;;;;;;;;;;4994590;28;20034;-47
2021/08/10 11:00:08;;;;;;;4.25;2.63;;;;;;;;;;4994358;28;20109;-55
2021/08/10 11:02:38;;;;;;;3.05;1.50;;;;;;;;;;4994406;28;20419;-57
2021/08/10 11:05:17;;;;;;;3.58;2.47;;;;;;;;;;4993721;28;20429;-54
2021/08/10 11:07:47;;;;;;;30.25;21.33;;;;;;;;;;4994418;28;20034;-55
2021/08/10 11:10:13;;;;;;;;;;;;;;;;;;4994344;28;20054;-57
2021/08/10 11:12:44;;;;;;;60.30;40.70;;;;;;;;;;4994048;28;19924;-54
2021/08/10 11:15:11;;;;;;;5.35;4.05;;;;;;;;;;4994238;28;20039;-56
2021/08/10 11:17:37;;;;;;;44.20;31.17;;;;;;;;;;4994280;28;20030;-55
2021/08/10 11:20:29;;;;;;;10.55;7.90;;;;;;;;;;4994190;28;20030;-56
2021/08/10 11:23:14;;;;;;;2.35;1.90;;;;;;;;;;4993852;28;20042;-53
2021/08/10 11:25:40;;;;;;;8.60;5.28;;;;;;;;;;4994018;28;20030;-53
2021/08/10 11:28:27;;;;;;;3.35;1.38;;;;;;;;;;4994023;28;20027;-53
2021/08/10 11:30:53;;;;;;;2.40;2.10;;;;;;;;;;4994063;28;20488;-56
2021/08/10 11:33:38;;;;;;;3.67;2.00;;;;;;;;;;4993871;28;20034;-60
2021/08/10 11:36:12;;;;;;;4.85;2.08;;;;;;;;;;4993823;28;20439;-55
2021/08/10 11:38:45;;;;;;;9.18;8.07;;;;;;;;;;4993649;28;20383;-56
2021/08/10 11:41:14;;;;;;;17.83;14.55;;;;;;;;;;4994076;28;20441;-55
2021/08/10 11:43:42;;;;;;;30.25;24.02;;;;;;;;;;4992541;28;20375;-52
2021/08/10 11:46:13;;;;;;;13.73;6.28;;;;;;;;;;4993873;28;20019;-54
2021/08/10 11:48:48;;;;;;;3.55;2.33;;;;;;;;;;4993797;28;20060;-54
2021/08/10 11:51:15;;;;;;;27.70;22.58;;;;;;;;;;4993989;28;20038;-52
2021/08/10 11:53:41;;;;;;;12.23;8.10;;;;;;;;;;4993727;28;20511;-55
2021/08/10 11:56:20;;;;;;;52.42;24.75;;;;;;;;;;4993921;28;20030;-54
2021/08/10 11:58:46;;;;;;;213.93;148.60;;;;;;;;;;4993637;28;20026;-53
2021/08/10 12:01:13;;;;;;;174.27;144.43;;;;;;;;;;4993722;28;20030;-55
2021/08/10 12:03:39;;;;;;;70.57;56.88;;;;;;;;;;4993448;28;20025;-54
2021/08/10 12:06:05;;;;;;;26.60;21.85;;;;;;;;;;4993567;28;20094;-55
2021/08/10 12:08:31;;;;;;;14.73;12.00;;;;;;;;;;4993443;28;20054;-53
2021/08/10 12:10:57;;;;;;;42.80;22.75;;;;;;;;;;4993517;28;20034;-51
2021/08/10 12:13:25;;;;;;;9.00;5.60;;;;;;;;;;4993368;28;20117;-55
2021/08/10 12:15:54;;;;;;;8.13;7.28;;;;;;;;;;4993611;28;20394;-54
2021/08/10 12:18:22;;;;;;;19.25;13.75;;;;;;;;;;4992227;28;20134;-56
2021/08/10 12:20:56;;;;;;;14.07;7.25;;;;;;;;;;4994743;28;20398;-51
2021/08/10 12:23:22;;;;;;;10.35;7.13;;;;;;;;;;4997527;28;20112;-50
2021/08/10 12:25:48;;;;;;;25.58;17.63;;;;;;;;;;4997395;28;20026;-54
2021/08/10 12:28:15;;;;;;;12.15;7.22;;;;;;;;;;4997307;28;20026;-54
2021/08/10 12:30:42;;;;;;;295.45;250.75;;;;;;;;;;4997155;28;20601;-55
2021/08/10 12:33:14;;;;;;;18.75;11.45;;;;;;;;;;4997134;28;20057;-52
2021/08/10 12:35:40;;;;;;;6.13;4.47;;;;;;;;;;4997015;28;20023;-50
2021/08/10 12:38:07;;;;;;;29.42;22.27;;;;;;;;;;4996992;28;20529;-49
2021/08/10 12:40:33;;;;;;;4.45;3.60;;;;;;;;;;4997201;28;20050;-50
2021/08/10 12:43:00;;;;;;;7.85;3.60;;;;;;;;;;4997005;28;20050;-50
2021/08/10 12:45:33;;;;;;;4.53;3.47;;;;;;;;;;4996919;28;20034;-52
2021/08/10 12:47:59;;;;;;;17.05;12.35;;;;;;;;;;4996911;28;20363;-52
2021/08/10 12:50:25;;;;;;;8.88;5.15;;;;;;;;;;4997099;28;20049;-52
2021/08/10 12:52:51;;;;;;;17.02;14.43;;;;;;;;;;4996872;28;20034;-48
2021/08/10 12:55:20;;;;;;;30.27;24.17;;;;;;;;;;4996802;28;20029;-52
2021/08/10 12:57:47;;;;;;;87.50;68.57;;;;;;;;;;4996708;28;20041;-52
2021/08/10 13:00:16;;;;;;;49.28;40.00;;;;;;;;;;4996646;28;20014;-52
2021/08/10 13:02:43;;;;;;;17.45;13.20;;;;;;;;;;4996677;28;20455;-53
2021/08/10 13:05:10;;;;;;;24.40;19.58;;;;;;;;;;4996409;28;20030;-51
2021/08/10 13:07:36;;;;;;;91.95;70.63;;;;;;;;;;4996268;28;20014;-51
2021/08/10 13:10:05;;;;;;;102.18;71.35;;;;;;;;;;4995657;28;20054;-53
2021/08/10 13:12:32;;;;;;;23.50;17.27;;;;;;;;;;4996454;28;20106;-54
2021/08/10 13:15:01;;;;;;;13.23;8.75;;;;;;;;;;4996585;28;20553;-53
2021/08/10 13:17:27;;;;;;;5.28;3.42;;;;;;;;;;4996701;28;20087;-68
2021/08/10 13:20:04;;;;;;;30.65;21.95;;;;;;;;;;4996408;28;20061;-61
2021/08/10 13:22:39;;;;;;;12.98;7.85;;;;;;;;;;4996455;28;20390;-60
2021/08/10 13:25:07;;;;;;;33.80;21.38;;;;;;;;;;4996257;28;20031;-63
2021/08/10 13:27:33;;;;;;;12.77;7.18;;;;;;;;;;4996159;28;20015;-66
2021/08/10 13:29:59;;;;;;;41.92;30.70;;;;;;;;;;4996316;28;20027;-67
2021/08/10 13:32:26;;;;;;;45.35;30.63;;;;;;;;;;4996146;28;20026;-57
2021/08/10 13:34:54;;;;;;;22.02;14.18;;;;;;;;;;4996251;28;20500;-69
2021/08/10 13:37:21;;;;;;;12.05;5.82;;;;;;;;;;4996072;28;20118;-67
2021/08/10 13:39:47;;;;;;;31.60;21.67;;;;;;;;;;4995962;28;20023;-68
2021/08/10 13:42:16;;;;;;;78.32;60.97;;;;;;;;;;4995959;28;20026;-69
2021/08/10 13:44:42;;;;;;;4.80;3.67;;;;;;;;;;4996600;28;20023;-54
2021/08/10 13:47:10;;;;;;;13.95;9.48;;;;;;;;;;4996179;28;20065;-72
2021/08/10 13:49:38;;;;;;;43.85;36.28;;;;;;;;;;4995957;28;20026;-70
2021/08/10 13:52:04;;;;;;;18.15;14.55;;;;;;;;;;4995822;28;20397;-69
2021/08/10 13:54:30;;;;;;;15.52;9.98;;;;;;;;;;4995709;28;20034;-59
2021/08/10 13:56:56;;;;;;;7.70;5.00;;;;;;;;;;4995674;28;20022;-57
2021/08/10 13:59:23;;;;;;;4.45;2.10;;;;;;;;;;4995740;28;20057;-64
2021/08/10 14:01:54;;;;;;;42.60;36.10;;;;;;;;;;4995518;28;20019;-67
2021/08/10 14:04:21;;;;;;;34.30;27.75;;;;;;;;;;4995213;28;20030;-53
2021/08/10 14:06:47;;;;;;;5.85;3.58;;;;;;;;;;4995410;28;20022;-51
2021/08/10 14:09:13;;;;;;;47.05;38.58;;;;;;;;;;4995080;28;20043;-55
2021/08/10 14:11:39;;;;;;;35.30;27.02;;;;;;;;;;4995228;28;20086;-61
2021/08/10 14:14:05;;;;;;;47.00;32.58;;;;;;;;;;4995451;28;20034;-62
2021/08/10 14:16:31;;;;;;;51.80;39.65;;;;;;;;;;4995253;28;20030;-62
2021/08/10 14:18:58;;;;;;;20.27;15.38;;;;;;;;;;4994739;28;20030;-65
2021/08/10 14:21:24;;;;;;;15.48;12.07;;;;;;;;;;4993891;28;20113;-67
2021/08/10 14:23:50;;;;;;;18.02;15.55;;;;;;;;;;4993938;28;20022;-65
2021/08/10 14:26:21;;;;;;;13.32;10.60;;;;;;;;;;4993652;28;20029;-62
2021/08/10 14:28:47;;;;;;;5.10;4.07;;;;;;;;;;4993978;28;20077;-67
2021/08/10 14:31:13;;;;;;;3.78;2.60;;;;;;;;;;4993817;28;20029;-63
2021/08/10 14:33:40;;;;;;;13.55;10.52;;;;;;;;;;4993859;28;20062;-63
2021/08/10 14:36:07;;;;;;;12.50;10.80;;;;;;;;;;4993626;28;20077;-49
2021/08/10 14:38:33;;;;;;;12.60;8.60;;;;;;;;;;4993492;28;20026;-65